sensor_id;sensor_type;location;lat;lon;timestamp;P1;durP1;ratioP1;P2;durP2;ratioP2
53674;SDS011;39574;50.534;8.500;2022-11-20T00:01:44;15.0;;;8.8;;
53674;SDS011;39574;50.534;8.500;2022-11-20T00:06:43;14.6;;;8.6;;
53674;SDS011;39574;50.534;8.500;2022-11-20T00:11:41;14.1;;;8.4;;
53674;SDS011;39574;50.534;8.500;2022-11-20T00:16:40;14.1;;;8.3;;
53674;SDS011;39574;50.534;8.500;2022-11-20T00:21:39;14.5;;;8.6;;
53674;SDS011;39574;50.534;8.500;2022-11-20T00:26:37;14.2;;;8.5;;
53674;SDS011;39574;50.534;8.500;2022-11-20T00:31:36;14.1;;;8.6;;
53674;SDS011;39574;50.534;8.500;2022-11-20T00:36:34;13.7;;;8.6;;
53674;SDS011;39574;50.534;8.500;2022-11-20T00:41:33;13.8;;;8.4;;
53674;SDS011;39574;50.534;8.500;2022-11-20T00:46:31;14.1;;;8.4;;
53674;SDS011;39574;50.534;8.500;2022-11-20T00:51:30;14.9;;;8.6;;
53674;SDS011;39574;50.534;8.500;2022-11-20T00:56:29;15.7;;;8.8;;
53674;SDS011;39574;50.534;8.500;2022-11-20T01:01:28;14.9;;;8.8;;
53674;SDS011;39574;50.534;8.500;2022-11-20T01:06:26;14.6;;;8.7;;
53674;SDS011;39574;50.534;8.500;2022-11-20T01:11:25;14.2;;;8.7;;
53674;SDS011;39574;50.534;8.500;2022-11-20T01:16:24;14.7;;;9.0;;
53674;SDS011;39574;50.534;8.500;2022-11-20T01:21:23;15.0;;;9.2;;
53674;SDS011;39574;50.534;8.500;2022-11-20T01:26:21;15.5;;;9.2;;
53674;SDS011;39574;50.534;8.500;2022-11-20T01:31:20;15.2;;;9.2;;
53674;SDS011;39574;50.534;8.500;2022-11-20T01:36:18;15.3;;;9.4;;
53674;SDS011;39574;50.534;8.500;2022-11-20T01:41:16;16.2;;;9.9;;
53674;SDS011;39574;50.534;8.500;2022-11-20T01:46:16;15.9;;;9.8;;
53674;SDS011;39574;50.534;8.500;2022-11-20T01:51:15;16.4;;;9.5;;
53674;SDS011;39574;50.534;8.500;2022-11-20T01:56:12;16.5;;;9.4;;
53674;SDS011;39574;50.534;8.500;2022-11-20T02:01:10;15.6;;;9.1;;
53674;SDS011;39574;50.534;8.500;2022-11-20T02:06:10;15.5;;;9.1;;
53674;SDS011;39574;50.534;8.500;2022-11-20T02:11:08;15.1;;;8.9;;
53674;SDS011;39574;50.534;8.500;2022-11-20T02:16:08;15.1;;;8.7;;
53674;SDS011;39574;50.534;8.500;2022-11-20T02:21:06;15.2;;;8.8;;
53674;SDS011;39574;50.534;8.500;2022-11-20T02:26:04;15.7;;;9.2;;
53674;SDS011;39574;50.534;8.500;2022-11-20T02:31:02;16.2;;;9.4;;
53674;SDS011;39574;50.534;8.500;2022-11-20T02:36:01;15.9;;;9.6;;
53674;SDS011;39574;50.534;8.500;2022-11-20T02:40:59;16.3;;;9.6;;
53674;SDS011;39574;50.534;8.500;2022-11-20T02:45:58;16.0;;;9.3;;
53674;SDS011;39574;50.534;8.500;2022-11-20T02:50:57;15.4;;;9.1;;
53674;SDS011;39574;50.534;8.500;2022-11-20T02:55:55;15.3;;;9.1;;
53674;SDS011;39574;50.534;8.500;2022-11-20T03:00:54;15.1;;;9.0;;
53674;SDS011;39574;50.534;8.500;2022-11-20T03:05:53;15.1;;;9.2;;
53674;SDS011;39574;50.534;8.500;2022-11-20T03:10:51;15.1;;;9.1;;
53674;SDS011;39574;50.534;8.500;2022-11-20T03:15:50;15.2;;;9.2;;
53674;SDS011;39574;50.534;8.500;2022-11-20T03:20:48;15.6;;;9.2;;
53674;SDS011;39574;50.534;8.500;2022-11-20T03:25:47;15.9;;;9.5;;
53674;SDS011;39574;50.534;8.500;2022-11-20T03:30:45;16.4;;;9.9;;
53674;SDS011;39574;50.534;8.500;2022-11-20T03:35:44;16.5;;;9.7;;
53674;SDS011;39574;50.534;8.500;2022-11-20T03:40:43;17.5;;;9.9;;
53674;SDS011;39574;50.534;8.500;2022-11-20T03:45:41;17.9;;;10.0;;
53674;SDS011;39574;50.534;8.500;2022-11-20T03:50:40;17.4;;;9.9;;
53674;SDS011;39574;50.534;8.500;2022-11-20T03:55:38;17.4;;;9.8;;
53674;SDS011;39574;50.534;8.500;2022-11-20T04:00:37;17.1;;;9.8;;
53674;SDS011;39574;50.534;8.500;2022-11-20T04:05:35;16.6;;;9.7;;
53674;SDS011;39574;50.534;8.500;2022-11-20T04:10:34;16.1;;;9.5;;
53674;SDS011;39574;50.534;8.500;2022-11-20T04:15:32;16.4;;;9.9;;
53674;SDS011;39574;50.534;8.500;2022-11-20T04:20:31;17.2;;;10.2;;
53674;SDS011;39574;50.534;8.500;2022-11-20T04:25:30;17.2;;;10.2;;
53674;SDS011;39574;50.534;8.500;2022-11-20T04:30:28;17.2;;;10.1;;
53674;SDS011;39574;50.534;8.500;2022-11-20T04:35:27;16.4;;;9.9;;
53674;SDS011;39574;50.534;8.500;2022-11-20T04:40:25;17.0;;;10.2;;
53674;SDS011;39574;50.534;8.500;2022-11-20T04:45:24;19.7;;;11.4;;
53674;SDS011;39574;50.534;8.500;2022-11-20T04:50:23;22.8;;;13.0;;
53674;SDS011;39574;50.534;8.500;2022-11-20T04:55:21;27.0;;;15.5;;
53674;SDS011;39574;50.534;8.500;2022-11-20T05:05:18;24.3;;;12.9;;
53674;SDS011;39574;50.534;8.500;2022-11-20T05:10:17;22.3;;;11.9;;
53674;SDS011;39574;50.534;8.500;2022-11-20T05:15:15;20.3;;;11.2;;
53674;SDS011;39574;50.534;8.500;2022-11-20T05:20:14;20.4;;;11.5;;
53674;SDS011;39574;50.534;8.500;2022-11-20T05:25:13;20.6;;;11.5;;
53674;SDS011;39574;50.534;8.500;2022-11-20T05:30:12;21.9;;;12.1;;
53674;SDS011;39574;50.534;8.500;2022-11-20T05:35:10;23.6;;;12.6;;
53674;SDS011;39574;50.534;8.500;2022-11-20T05:40:09;23.0;;;12.1;;
53674;SDS011;39574;50.534;8.500;2022-11-20T05:45:08;25.6;;;13.4;;
53674;SDS011;39574;50.534;8.500;2022-11-20T05:50:05;26.9;;;14.1;;
53674;SDS011;39574;50.534;8.500;2022-11-20T05:55:04;28.4;;;15.0;;
53674;SDS011;39574;50.534;8.500;2022-11-20T06:00:03;29.1;;;15.1;;
53674;SDS011;39574;50.534;8.500;2022-11-20T06:05:01;28.6;;;14.9;;
53674;SDS011;39574;50.534;8.500;2022-11-20T06:10:00;27.9;;;14.6;;
53674;SDS011;39574;50.534;8.500;2022-11-20T06:14:58;28.4;;;15.2;;
53674;SDS011;39574;50.534;8.500;2022-11-20T06:19:57;29.5;;;15.4;;
53674;SDS011;39574;50.534;8.500;2022-11-20T06:24:55;29.6;;;15.5;;
53674;SDS011;39574;50.534;8.500;2022-11-20T06:29:54;29.4;;;15.4;;
53674;SDS011;39574;50.534;8.500;2022-11-20T06:34:53;28.4;;;15.1;;
53674;SDS011;39574;50.534;8.500;2022-11-20T06:39:51;27.2;;;14.9;;
53674;SDS011;39574;50.534;8.500;2022-11-20T06:44:50;26.5;;;14.8;;
53674;SDS011;39574;50.534;8.500;2022-11-20T06:49:48;26.6;;;14.7;;
53674;SDS011;39574;50.534;8.500;2022-11-20T06:54:47;27.3;;;14.8;;
53674;SDS011;39574;50.534;8.500;2022-11-20T06:59:46;27.4;;;14.5;;
53674;SDS011;39574;50.534;8.500;2022-11-20T07:04:44;27.8;;;14.7;;
53674;SDS011;39574;50.534;8.500;2022-11-20T07:09:43;27.6;;;14.7;;
53674;SDS011;39574;50.534;8.500;2022-11-20T07:14:41;27.9;;;15.0;;
53674;SDS011;39574;50.534;8.500;2022-11-20T07:19:40;29.1;;;15.7;;
53674;SDS011;39574;50.534;8.500;2022-11-20T07:24:39;29.9;;;16.0;;
53674;SDS011;39574;50.534;8.500;2022-11-20T07:29:37;30.1;;;16.0;;
53674;SDS011;39574;50.534;8.500;2022-11-20T07:34:36;32.2;;;16.6;;
53674;SDS011;39574;50.534;8.500;2022-11-20T07:39:34;32.7;;;16.6;;
53674;SDS011;39574;50.534;8.500;2022-11-20T07:44:33;33.7;;;17.0;;
53674;SDS011;39574;50.534;8.500;2022-11-20T07:49:32;34.0;;;16.9;;
53674;SDS011;39574;50.534;8.500;2022-11-20T07:59:29;35.3;;;17.8;;
53674;SDS011;39574;50.534;8.500;2022-11-20T08:04:28;37.9;;;19.0;;
53674;SDS011;39574;50.534;8.500;2022-11-20T08:09:26;39.5;;;19.3;;
53674;SDS011;39574;50.534;8.500;2022-11-20T08:14:25;39.3;;;19.1;;
53674;SDS011;39574;50.534;8.500;2022-11-20T08:19:23;41.4;;;19.8;;
53674;SDS011;39574;50.534;8.500;2022-11-20T08:24:22;43.5;;;20.5;;
53674;SDS011;39574;50.534;8.500;2022-11-20T08:29:21;43.7;;;21.0;;
53674;SDS011;39574;50.534;8.500;2022-11-20T08:34:19;44.2;;;21.4;;
53674;SDS011;39574;50.534;8.500;2022-11-20T08:39:18;45.1;;;21.5;;
53674;SDS011;39574;50.534;8.500;2022-11-20T08:44:16;44.9;;;21.4;;
53674;SDS011;39574;50.534;8.500;2022-11-20T08:49:15;46.2;;;22.3;;
53674;SDS011;39574;50.534;8.500;2022-11-20T08:54:13;44.0;;;21.5;;
53674;SDS011;39574;50.534;8.500;2022-11-20T08:59:12;42.8;;;20.7;;
53674;SDS011;39574;50.534;8.500;2022-11-20T09:04:11;41.7;;;20.1;;
53674;SDS011;39574;50.534;8.500;2022-11-20T09:09:09;41.4;;;20.6;;
53674;SDS011;39574;50.534;8.500;2022-11-20T09:14:08;42.5;;;21.2;;
53674;SDS011;39574;50.534;8.500;2022-11-20T09:19:07;43.8;;;21.7;;
53674;SDS011;39574;50.534;8.500;2022-11-20T09:24:05;44.9;;;22.4;;
53674;SDS011;39574;50.534;8.500;2022-11-20T09:29:04;46.6;;;23.2;;
53674;SDS011;39574;50.534;8.500;2022-11-20T09:34:02;46.1;;;22.9;;
53674;SDS011;39574;50.534;8.500;2022-11-20T09:39:01;45.9;;;22.5;;
53674;SDS011;39574;50.534;8.500;2022-11-20T09:44:01;48.2;;;23.6;;
53674;SDS011;39574;50.534;8.500;2022-11-20T09:49:02;49.2;;;24.5;;
53674;SDS011;39574;50.534;8.500;2022-11-20T09:54:00;50.6;;;24.9;;
53674;SDS011;39574;50.534;8.500;2022-11-20T09:58:57;49.9;;;24.8;;
53674;SDS011;39574;50.534;8.500;2022-11-20T10:03:56;49.2;;;24.4;;
53674;SDS011;39574;50.534;8.500;2022-11-20T10:08:54;49.3;;;24.4;;
53674;SDS011;39574;50.534;8.500;2022-11-20T10:13:53;49.3;;;24.3;;
53674;SDS011;39574;50.534;8.500;2022-11-20T10:18:54;49.7;;;24.5;;
53674;SDS011;39574;50.534;8.500;2022-11-20T10:23:56;50.0;;;24.1;;
53674;SDS011;39574;50.534;8.500;2022-11-20T10:28:52;49.8;;;23.8;;
53674;SDS011;39574;50.534;8.500;2022-11-20T10:33:46;49.2;;;23.4;;
53674;SDS011;39574;50.534;8.500;2022-11-20T10:38:46;48.3;;;22.9;;
53674;SDS011;39574;50.534;8.500;2022-11-20T10:43:44;50.1;;;23.9;;
53674;SDS011;39574;50.534;8.500;2022-11-20T10:48:43;51.4;;;24.3;;
53674;SDS011;39574;50.534;8.500;2022-11-20T10:53:45;52.4;;;24.8;;
53674;SDS011;39574;50.534;8.500;2022-11-20T10:58:41;53.0;;;25.2;;
53674;SDS011;39574;50.534;8.500;2022-11-20T11:03:38;52.2;;;25.2;;
53674;SDS011;39574;50.534;8.500;2022-11-20T11:08:38;52.3;;;26.1;;
53674;SDS011;39574;50.534;8.500;2022-11-20T11:13:36;57.3;;;29.3;;
53674;SDS011;39574;50.534;8.500;2022-11-20T11:18:35;58.5;;;30.2;;
53674;SDS011;39574;50.534;8.500;2022-11-20T11:23:33;60.0;;;30.5;;
53674;SDS011;39574;50.534;8.500;2022-11-20T11:28:32;57.6;;;28.3;;
53674;SDS011;39574;50.534;8.500;2022-11-20T11:33:31;52.8;;;25.6;;
53674;SDS011;39574;50.534;8.500;2022-11-20T11:38:30;47.4;;;23.3;;
53674;SDS011;39574;50.534;8.500;2022-11-20T11:43:28;47.0;;;23.4;;
53674;SDS011;39574;50.534;8.500;2022-11-20T11:48:27;46.7;;;22.9;;
53674;SDS011;39574;50.534;8.500;2022-11-20T11:53:25;42.3;;;20.8;;
53674;SDS011;39574;50.534;8.500;2022-11-20T11:58:29;38.1;;;18.7;;
53674;SDS011;39574;50.534;8.500;2022-11-20T12:03:24;35.3;;;17.4;;
53674;SDS011;39574;50.534;8.500;2022-11-20T12:08:23;34.8;;;17.0;;
53674;SDS011;39574;50.534;8.500;2022-11-20T12:13:21;33.7;;;16.5;;
53674;SDS011;39574;50.534;8.500;2022-11-20T12:18:19;33.2;;;16.3;;
53674;SDS011;39574;50.534;8.500;2022-11-20T12:23:18;32.8;;;16.0;;
53674;SDS011;39574;50.534;8.500;2022-11-20T12:28:19;33.0;;;16.0;;
53674;SDS011;39574;50.534;8.500;2022-11-20T12:33:18;31.1;;;15.7;;
53674;SDS011;39574;50.534;8.500;2022-11-20T12:38:23;30.4;;;15.6;;
53674;SDS011;39574;50.534;8.500;2022-11-20T12:43:13;30.3;;;15.3;;
53674;SDS011;39574;50.534;8.500;2022-11-20T12:48:22;29.0;;;14.9;;
53674;SDS011;39574;50.534;8.500;2022-11-20T12:53:10;29.2;;;15.1;;
53674;SDS011;39574;50.534;8.500;2022-11-20T12:58:10;28.9;;;15.0;;
53674;SDS011;39574;50.534;8.500;2022-11-20T13:03:13;28.1;;;15.0;;
53674;SDS011;39574;50.534;8.500;2022-11-20T13:08:07;29.1;;;15.3;;
53674;SDS011;39574;50.534;8.500;2022-11-20T13:13:05;28.3;;;14.7;;
53674;SDS011;39574;50.534;8.500;2022-11-20T13:18:04;29.6;;;15.5;;
53674;SDS011;39574;50.534;8.500;2022-11-20T13:23:01;31.6;;;16.5;;
53674;SDS011;39574;50.534;8.500;2022-11-20T13:28:01;34.0;;;17.4;;
53674;SDS011;39574;50.534;8.500;2022-11-20T13:33:01;32.6;;;17.3;;
53674;SDS011;39574;50.534;8.500;2022-11-20T13:37:59;28.7;;;15.4;;
53674;SDS011;39574;50.534;8.500;2022-11-20T13:43:01;27.4;;;15.1;;
53674;SDS011;39574;50.534;8.500;2022-11-20T13:47:55;25.3;;;14.3;;
53674;SDS011;39574;50.534;8.500;2022-11-20T13:52:55;25.0;;;13.7;;
53674;SDS011;39574;50.534;8.500;2022-11-20T13:57:56;25.2;;;13.6;;
53674;SDS011;39574;50.534;8.500;2022-11-20T14:02:59;23.6;;;12.5;;
53674;SDS011;39574;50.534;8.500;2022-11-20T14:07:50;23.3;;;12.5;;
53674;SDS011;39574;50.534;8.500;2022-11-20T14:12:48;22.0;;;12.2;;
53674;SDS011;39574;50.534;8.500;2022-11-20T14:17:47;22.0;;;12.2;;
53674;SDS011;39574;50.534;8.500;2022-11-20T14:22:47;26.5;;;14.6;;
53674;SDS011;39574;50.534;8.500;2022-11-20T14:27:46;26.6;;;15.0;;
53674;SDS011;39574;50.534;8.500;2022-11-20T14:32:44;29.8;;;15.9;;
53674;SDS011;39574;50.534;8.500;2022-11-20T14:37:42;29.1;;;15.9;;
53674;SDS011;39574;50.534;8.500;2022-11-20T14:42:43;28.8;;;15.8;;
53674;SDS011;39574;50.534;8.500;2022-11-20T14:47:39;29.4;;;15.9;;
53674;SDS011;39574;50.534;8.500;2022-11-20T14:52:38;28.6;;;15.4;;
53674;SDS011;39574;50.534;8.500;2022-11-20T14:57:37;28.5;;;15.2;;
53674;SDS011;39574;50.534;8.500;2022-11-20T15:02:38;28.3;;;15.1;;
53674;SDS011;39574;50.534;8.500;2022-11-20T15:07:35;29.5;;;15.6;;
53674;SDS011;39574;50.534;8.500;2022-11-20T15:12:33;31.0;;;16.4;;
53674;SDS011;39574;50.534;8.500;2022-11-20T15:17:32;29.5;;;16.0;;
53674;SDS011;39574;50.534;8.500;2022-11-20T15:22:30;28.1;;;15.5;;
53674;SDS011;39574;50.534;8.500;2022-11-20T15:27:29;26.8;;;15.0;;
53674;SDS011;39574;50.534;8.500;2022-11-20T15:32:28;26.5;;;14.9;;
53674;SDS011;39574;50.534;8.500;2022-11-20T15:37:26;25.7;;;14.6;;
53674;SDS011;39574;50.534;8.500;2022-11-20T15:42:25;26.9;;;15.1;;
53674;SDS011;39574;50.534;8.500;2022-11-20T15:47:24;25.1;;;14.1;;
53674;SDS011;39574;50.534;8.500;2022-11-20T15:52:23;25.4;;;14.2;;
53674;SDS011;39574;50.534;8.500;2022-11-20T15:57:21;25.4;;;14.3;;
53674;SDS011;39574;50.534;8.500;2022-11-20T16:02:20;26.5;;;15.2;;
53674;SDS011;39574;50.534;8.500;2022-11-20T16:07:19;30.1;;;17.2;;
53674;SDS011;39574;50.534;8.500;2022-11-20T16:12:18;35.4;;;20.2;;
53674;SDS011;39574;50.534;8.500;2022-11-20T16:17:16;39.8;;;22.6;;
53674;SDS011;39574;50.534;8.500;2022-11-20T16:22:15;39.6;;;22.6;;
53674;SDS011;39574;50.534;8.500;2022-11-20T16:27:14;34.7;;;19.9;;
53674;SDS011;39574;50.534;8.500;2022-11-20T16:32:13;34.4;;;19.3;;
53674;SDS011;39574;50.534;8.500;2022-11-20T16:37:11;35.4;;;19.6;;
53674;SDS011;39574;50.534;8.500;2022-11-20T16:42:10;39.1;;;21.9;;
53674;SDS011;39574;50.534;8.500;2022-11-20T16:47:08;41.9;;;23.3;;
53674;SDS011;39574;50.534;8.500;2022-11-20T16:52:07;44.7;;;24.5;;
53674;SDS011;39574;50.534;8.500;2022-11-20T16:57:06;45.9;;;25.1;;
53674;SDS011;39574;50.534;8.500;2022-11-20T17:02:05;48.1;;;25.8;;
53674;SDS011;39574;50.534;8.500;2022-11-20T17:07:03;50.9;;;26.9;;
53674;SDS011;39574;50.534;8.500;2022-11-20T17:12:02;52.9;;;27.5;;
53674;SDS011;39574;50.534;8.500;2022-11-20T17:17:01;52.9;;;27.6;;
53674;SDS011;39574;50.534;8.500;2022-11-20T17:21:59;47.5;;;24.8;;
53674;SDS011;39574;50.534;8.500;2022-11-20T17:26:58;43.7;;;22.6;;
53674;SDS011;39574;50.534;8.500;2022-11-20T17:31:57;42.0;;;21.5;;
53674;SDS011;39574;50.534;8.500;2022-11-20T17:36:55;42.9;;;22.3;;
53674;SDS011;39574;50.534;8.500;2022-11-20T17:41:54;40.2;;;21.6;;
53674;SDS011;39574;50.534;8.500;2022-11-20T17:46:53;37.6;;;20.3;;
53674;SDS011;39574;50.534;8.500;2022-11-20T17:51:51;36.4;;;19.9;;
53674;SDS011;39574;50.534;8.500;2022-11-20T17:56:50;33.9;;;18.7;;
53674;SDS011;39574;50.534;8.500;2022-11-20T18:01:49;41.9;;;21.3;;
53674;SDS011;39574;50.534;8.500;2022-11-20T18:06:48;43.9;;;22.5;;
53674;SDS011;39574;50.534;8.500;2022-11-20T18:11:46;44.0;;;22.9;;
53674;SDS011;39574;50.534;8.500;2022-11-20T18:16:46;41.5;;;22.4;;
53674;SDS011;39574;50.534;8.500;2022-11-20T18:21:44;37.1;;;20.8;;
53674;SDS011;39574;50.534;8.500;2022-11-20T18:26:42;36.7;;;21.0;;
53674;SDS011;39574;50.534;8.500;2022-11-20T18:31:41;36.4;;;20.9;;
53674;SDS011;39574;50.534;8.500;2022-11-20T18:36:40;42.8;;;24.0;;
53674;SDS011;39574;50.534;8.500;2022-11-20T18:41:39;42.0;;;23.7;;
53674;SDS011;39574;50.534;8.500;2022-11-20T18:46:37;41.0;;;23.1;;
53674;SDS011;39574;50.534;8.500;2022-11-20T18:51:36;46.5;;;24.9;;
53674;SDS011;39574;50.534;8.500;2022-11-20T18:56:35;45.1;;;24.3;;
53674;SDS011;39574;50.534;8.500;2022-11-20T19:01:33;48.7;;;26.2;;
53674;SDS011;39574;50.534;8.500;2022-11-20T19:06:32;46.7;;;25.5;;
53674;SDS011;39574;50.534;8.500;2022-11-20T19:11:31;41.5;;;23.4;;
53674;SDS011;39574;50.534;8.500;2022-11-20T19:16:29;36.4;;;21.5;;
53674;SDS011;39574;50.534;8.500;2022-11-20T19:21:28;24.1;;;14.4;;
53674;SDS011;39574;50.534;8.500;2022-11-20T19:26:27;14.9;;;9.0;;
53674;SDS011;39574;50.534;8.500;2022-11-20T19:31:25;9.4;;;5.5;;
53674;SDS011;39574;50.534;8.500;2022-11-20T19:36:25;6.1;;;3.4;;
53674;SDS011;39574;50.534;8.500;2022-11-20T19:41:24;5.3;;;3.1;;
53674;SDS011;39574;50.534;8.500;2022-11-20T19:46:22;4.8;;;2.9;;
53674;SDS011;39574;50.534;8.500;2022-11-20T19:51:21;5.0;;;2.9;;
53674;SDS011;39574;50.534;8.500;2022-11-20T19:56:19;5.1;;;2.8;;
53674;SDS011;39574;50.534;8.500;2022-11-20T20:01:19;4.5;;;2.6;;
53674;SDS011;39574;50.534;8.500;2022-11-20T20:06:17;4.4;;;2.5;;
53674;SDS011;39574;50.534;8.500;2022-11-20T20:11:16;3.8;;;2.2;;
53674;SDS011;39574;50.534;8.500;2022-11-20T20:16:15;3.3;;;2.0;;
53674;SDS011;39574;50.534;8.500;2022-11-20T20:21:13;4.3;;;2.1;;
53674;SDS011;39574;50.534;8.500;2022-11-20T20:26:11;4.1;;;2.1;;
53674;SDS011;39574;50.534;8.500;2022-11-20T20:31:10;3.6;;;2.1;;
53674;SDS011;39574;50.534;8.500;2022-11-20T20:36:11;4.2;;;2.4;;
53674;SDS011;39574;50.534;8.500;2022-11-20T20:41:07;3.5;;;2.0;;
53674;SDS011;39574;50.534;8.500;2022-11-20T20:46:06;3.4;;;2.0;;
53674;SDS011;39574;50.534;8.500;2022-11-20T20:51:05;4.1;;;2.0;;
53674;SDS011;39574;50.534;8.500;2022-11-20T20:56:04;3.6;;;1.9;;
53674;SDS011;39574;50.534;8.500;2022-11-20T21:01:03;5.5;;;2.6;;
53674;SDS011;39574;50.534;8.500;2022-11-20T21:06:02;5.9;;;3.0;;
53674;SDS011;39574;50.534;8.500;2022-11-20T21:11:01;5.0;;;2.6;;
53674;SDS011;39574;50.534;8.500;2022-11-20T21:15:59;4.8;;;2.2;;
53674;SDS011;39574;50.534;8.500;2022-11-20T21:20:58;3.7;;;1.8;;
53674;SDS011;39574;50.534;8.500;2022-11-20T21:25:58;3.6;;;1.7;;
53674;SDS011;39574;50.534;8.500;2022-11-20T21:31:01;3.5;;;1.7;;
53674;SDS011;39574;50.534;8.500;2022-11-20T21:35:54;4.3;;;1.6;;
53674;SDS011;39574;50.534;8.500;2022-11-20T21:45:51;3.9;;;1.6;;
53674;SDS011;39574;50.534;8.500;2022-11-20T21:50:50;4.8;;;1.7;;
53674;SDS011;39574;50.534;8.500;2022-11-20T21:55:52;5.2;;;1.7;;
53674;SDS011;39574;50.534;8.500;2022-11-20T22:00:48;5.2;;;1.7;;
53674;SDS011;39574;50.534;8.500;2022-11-20T22:05:54;5.4;;;1.9;;
53674;SDS011;39574;50.534;8.500;2022-11-20T22:10:51;4.4;;;1.8;;
53674;SDS011;39574;50.534;8.500;2022-11-20T22:15:44;4.1;;;1.7;;
53674;SDS011;39574;50.534;8.500;2022-11-20T22:20:43;4.2;;;1.7;;
53674;SDS011;39574;50.534;8.500;2022-11-20T22:25:42;5.0;;;1.7;;
53674;SDS011;39574;50.534;8.500;2022-11-20T22:30:40;5.4;;;1.7;;
53674;SDS011;39574;50.534;8.500;2022-11-20T22:35:39;5.3;;;1.7;;
53674;SDS011;39574;50.534;8.500;2022-11-20T22:40:38;5.5;;;1.6;;
53674;SDS011;39574;50.534;8.500;2022-11-20T22:45:36;6.0;;;1.6;;
53674;SDS011;39574;50.534;8.500;2022-11-20T22:50:35;6.0;;;1.6;;
53674;SDS011;39574;50.534;8.500;2022-11-20T22:55:34;6.7;;;1.8;;
53674;SDS011;39574;50.534;8.500;2022-11-20T23:00:33;7.2;;;2.1;;
53674;SDS011;39574;50.534;8.500;2022-11-20T23:05:32;6.7;;;1.9;;
53674;SDS011;39574;50.534;8.500;2022-11-20T23:10:30;5.2;;;1.7;;
53674;SDS011;39574;50.534;8.500;2022-11-20T23:15:29;5.7;;;1.7;;
53674;SDS011;39574;50.534;8.500;2022-11-20T23:20:28;5.4;;;1.6;;
53674;SDS011;39574;50.534;8.500;2022-11-20T23:25:27;6.2;;;1.5;;
53674;SDS011;39574;50.534;8.500;2022-11-20T23:30:26;6.6;;;1.5;;
53674;SDS011;39574;50.534;8.500;2022-11-20T23:35:24;6.3;;;1.4;;
53674;SDS011;39574;50.534;8.500;2022-11-20T23:40:23;7.5;;;1.5;;
53674;SDS011;39574;50.534;8.500;2022-11-20T23:45:22;8.7;;;1.6;;
53674;SDS011;39574;50.534;8.500;2022-11-20T23:50:22;7.1;;;1.6;;
53674;SDS011;39574;50.534;8.500;2022-11-20T23:55:20;8.9;;;1.9;;
